Progreso, Texas
Current Conditions -  °F | °C
As of 10:15 AM on Sunday 25 Jan 2015 (Local Time) from KT65 Reporting Station
Clear Clear  
Wind Chill: 59°   Ceiling: Unl
Heat Index: 59°   Visibility: 7mi
Dew Point: 45°   Wind: 7mph
Humidity: 59%   Direction: 210°SSW
Pressure: 30.18"   Gusts: NA
Location:  26.09°N, 97.96°W
Report Text: KT65 251615Z AUTO 21006KT 7SM CLR 15/07 A3018 RMK AO2 T01520073
Loading
Personal Weather Stations






























Interactive Weather Map New forecast layout! Learn more

10-Day Weather Forecast

Advertisements
Track Severe Weather on mobile